Time;durP1;ratioP1;P1;durP2;ratioP2;P2;SDS_P1;SDS_P2;PMS_P1;PMS_P2;Temp;Humidity;BMP_temperature;BMP_pressure;BME280_temperature;BME280_humidity;BME280_pressure;Samples;Min_cycle;Max_cycle;Signal;HPM_P1;HPM_P2
2022/08/05 00:01:46;;;;;;;4.60;3.97;;;;;;;28.91;42.05;97014.25;5043461;28;20229;-69
2022/08/05 00:04:12;;;;;;;6.10;4.20;;;;;;;29.01;42.52;97018.00;5049109;28;20203;-69
2022/08/05 00:06:37;;;;;;;5.13;4.00;;;;;;;28.99;42.23;97012.06;5045664;28;20501;-68
2022/08/05 00:09:03;;;;;;;5.10;4.17;;;;;;;29.05;41.90;97019.84;5048689;28;20190;-69
2022/08/05 00:11:29;;;;;;;5.77;3.17;;;;;;;29.02;41.30;97019.59;5037314;28;20191;-69
2022/08/05 00:13:55;;;;;;;4.37;3.97;;;;;;;29.00;41.06;97027.97;5051434;28;20819;-69
2022/08/05 00:16:20;;;;;;;27.87;4.60;;;;;;;28.99;41.57;97020.97;5048887;28;20554;-68
2022/08/05 00:18:47;;;;;;;4.37;3.97;;;;;;;29.00;41.58;97029.84;5041435;28;20195;-69
2022/08/05 00:21:13;;;;;;;4.37;3.80;;;;;;;29.00;41.38;97021.75;5049022;28;20182;-70
2022/08/05 00:23:39;;;;;;;3.87;3.43;;;;;;;29.02;41.30;97033.09;5045009;28;20481;-69
2022/08/05 00:26:06;;;;;;;4.93;3.63;;;;;;;28.99;41.54;97033.63;5037103;28;20492;-69
2022/08/05 00:28:32;;;;;;;4.17;3.87;;;;;;;28.97;41.78;97020.44;5038453;28;20176;-69
2022/08/05 00:30:57;;;;;;;5.90;3.90;;;;;;;28.91;42.35;97022.34;5048417;28;20498;-69
2022/08/05 00:33:23;;;;;;;5.80;3.63;;;;;;;28.89;42.22;97031.81;5035954;28;20291;-69
2022/08/05 00:35:48;;;;;;;9.13;3.60;;;;;;;28.86;42.62;97037.75;5050141;28;20270;-68
2022/08/05 00:38:13;;;;;;;5.10;3.70;;;;;;;28.83;42.45;97039.09;5043527;28;20742;-69
2022/08/05 00:40:51;;;;;;;4.43;3.90;;;;;;;28.78;42.84;97042.63;5047514;28;20233;-68
2022/08/05 00:43:16;;;;;;;4.70;4.10;;;;;;;28.71;42.54;97041.28;5034718;28;20196;-68
2022/08/05 00:45:43;;;;;;;5.37;4.07;;;;;;;28.63;42.83;97046.13;5042718;28;20454;-68
2022/08/05 00:48:13;;;;;;;4.40;4.00;;;;;;;28.59;42.97;97053.16;5045564;28;20184;-69
2022/08/05 00:50:40;;;;;;;3.80;3.40;;;;;;;28.56;42.55;97040.22;5045689;28;20413;-70
2022/08/05 00:53:05;;;;;;;3.47;3.17;;;;;;;28.57;42.06;97049.94;5047231;28;20445;-68
2022/08/05 00:55:30;;;;;;;4.20;3.90;;;;;;;28.51;42.57;97068.00;5046394;28;20418;-69
2022/08/05 00:57:56;;;;;;;3.33;3.07;;;;;;;28.47;43.20;97075.00;5045470;28;20942;-68
2022/08/05 01:00:21;;;;;;;5.20;3.70;;;;;;;28.52;42.64;97074.19;5045365;28;20535;-69
2022/08/05 01:02:47;;;;;;;5.23;3.40;;;;;;;28.55;42.33;97072.81;5044625;28;20198;-68
2022/08/05 01:05:12;;;;;;;3.20;2.90;;;;;;;28.57;38.91;97074.19;5045230;28;20203;-69
2022/08/05 01:07:38;;;;;;;3.10;2.83;;;;;;;28.61;37.65;97074.44;5045551;28;20183;-68
2022/08/05 01:10:05;;;;;;;3.70;2.63;;;;;;;28.63;36.40;97072.28;5043079;28;20268;-69
2022/08/05 01:12:31;;;;;;;4.07;3.00;;;;;;;28.69;35.68;97075.78;5033351;28;20213;-69
2022/08/05 01:15:07;;;;;;;3.73;2.60;;;;;;;28.73;35.68;97076.88;5043391;28;20419;-69
2022/08/05 01:17:38;;;;;;;4.47;2.40;;;;;;;28.78;36.12;97074.16;5030295;28;20215;-69
2022/08/05 01:20:30;;;;;;;5.90;2.33;;;;;;;28.80;36.77;97080.09;5041431;28;20429;-69
2022/08/05 01:23:22;;;;;;;8.37;3.50;;;;;;;28.89;36.86;97074.94;5046537;28;20449;-69
2022/08/05 01:25:59;;;;;;;5.63;2.80;;;;;;;28.96;36.89;97086.25;5038273;28;20461;-68
2022/08/05 01:28:46;;;;;;;6.53;2.97;;;;;;;28.98;37.17;97084.09;5038982;28;20472;-70
2022/08/05 01:31:40;;;;;;;4.07;2.50;;;;;;;28.99;37.61;97091.09;5047890;28;20425;-68
2022/08/05 01:34:11;;;;;;;4.43;2.63;;;;;;;29.03;37.91;97094.03;5033463;28;20426;-69
2022/08/05 01:36:42;;;;;;;9.87;3.30;;;;;;;28.96;38.25;97100.53;5046205;28;20414;-69
2022/08/05 01:39:09;;;;;;;6.60;2.37;;;;;;;28.95;38.18;97103.50;5043894;28;20418;-70
2022/08/05 01:41:35;;;;;;;11.47;2.73;;;;;;;28.87;38.68;97110.25;5032092;28;20429;-69
2022/08/05 01:44:01;;;;;;;6.97;2.70;;;;;;;28.91;38.48;97124.81;5045017;28;20450;-70
2022/08/05 01:46:28;;;;;;;7.60;2.77;;;;;;;28.87;38.86;97123.75;5041468;28;20179;-70
2022/08/05 01:48:54;;;;;;;8.17;2.73;;;;;;;28.86;38.90;97124.81;5046013;28;20509;-71
2022/08/05 01:51:20;;;;;;;9.00;2.60;;;;;;;28.86;39.17;97126.72;5041934;28;20426;-71
2022/08/05 01:53:48;;;;;;;5.33;2.70;;;;;;;28.85;39.18;97133.19;5048338;28;20465;-71
2022/08/05 01:56:15;;;;;;;5.07;2.87;;;;;;;28.84;39.26;97143.19;5043607;28;20424;-70
2022/08/05 01:58:41;;;;;;;7.43;2.23;;;;;;;28.80;39.39;97134.81;5043717;28;20426;-70
2022/08/05 02:01:07;;;;;;;12.40;2.90;;;;;;;28.79;39.59;97141.31;5041794;28;20426;-70
2022/08/05 02:03:36;;;;;;;18.00;2.83;;;;;;;28.78;39.74;97133.47;5033114;28;20444;-71
2022/08/05 02:06:04;;;;;;;5.33;2.60;;;;;;;28.70;40.31;97126.72;5042750;28;20572;-70
2022/08/05 02:08:31;;;;;;;5.10;2.60;;;;;;;28.71;40.31;97133.72;5042054;28;20413;-71
2022/08/05 02:11:02;;;;;;;12.27;2.80;;;;;;;28.70;40.15;97125.91;5025861;28;20806;-69
2022/08/05 02:13:34;;;;;;;9.33;3.00;;;;;;;28.65;40.28;97122.13;5044381;28;20442;-70
2022/08/05 02:16:03;;;;;;;7.23;2.50;;;;;;;28.62;40.46;97130.75;5045073;28;20417;-70
2022/08/05 02:18:39;;;;;;;9.60;2.67;;;;;;;28.61;40.60;97131.03;5042817;28;20530;-70
2022/08/05 02:21:09;;;;;;;10.07;2.90;;;;;;;28.61;40.72;97121.06;5045998;28;20426;-70
2022/08/05 02:23:37;;;;;;;9.53;3.17;;;;;;;28.61;40.72;97121.06;5043532;28;20445;-72
2022/08/05 02:26:04;;;;;;;11.13;2.97;;;;;;;28.60;40.72;97132.13;5033900;28;20980;-70
2022/08/05 02:28:31;;;;;;;8.10;2.90;;;;;;;28.58;40.99;97143.19;5037012;28;20513;-70
2022/08/05 02:31:01;;;;;;;6.67;2.97;;;;;;;28.56;41.08;97137.25;5046770;28;20436;-70
2022/08/05 02:33:27;;;;;;;4.67;2.40;;;;;;;28.54;41.23;97134.00;5032625;28;20517;-71
2022/08/05 02:35:54;;;;;;;8.00;3.07;;;;;;;28.53;41.35;97145.88;5046373;28;20430;-70
2022/08/05 02:38:20;;;;;;;8.27;3.10;;;;;;;28.51;41.09;97140.75;5038652;28;20450;-71
2022/08/05 02:40:45;;;;;;;6.40;2.90;;;;;;;28.51;41.15;97140.75;5038393;28;20430;-71
2022/08/05 02:43:12;;;;;;;5.53;2.83;;;;;;;28.51;41.51;97139.94;5041619;28;20335;-71
2022/08/05 02:45:39;;;;;;;9.67;3.13;;;;;;;28.46;41.65;97142.66;5034855;28;20206;-71
2022/08/05 02:48:06;;;;;;;3.47;2.60;;;;;;;28.44;41.56;97144.81;5035765;28;20451;-71
2022/08/05 02:50:32;;;;;;;8.87;3.00;;;;;;;28.41;41.87;97139.94;5043990;28;20501;-71
2022/08/05 02:52:58;;;;;;;5.80;3.13;;;;;;;28.40;41.94;97143.72;5045728;28;20561;-69
2022/08/05 02:55:23;;;;;;;7.13;2.87;;;;;;;28.40;42.15;97149.09;5019995;28;20255;-71
2022/08/05 02:57:49;;;;;;;5.70;2.87;;;;;;;28.38;41.97;97149.38;5032719;28;20840;-71
2022/08/05 03:00:15;;;;;;;10.60;3.13;;;;;;;28.27;42.33;97151.25;5033470;28;20183;-71
2022/08/05 03:02:43;;;;;;;6.23;3.30;;;;;;;28.23;42.28;97152.06;5043726;28;20502;-72
2022/08/05 03:05:10;;;;;;;9.00;2.90;;;;;;;28.26;42.63;97155.03;5036152;28;20493;-70
2022/08/05 03:07:36;;;;;;;5.43;2.83;;;;;;;28.28;42.11;97163.66;5047662;28;20492;-70
2022/08/05 03:10:02;;;;;;;5.57;2.90;;;;;;;28.24;42.42;97167.94;5036877;28;20880;-71
2022/08/05 03:12:29;;;;;;;8.70;3.23;;;;;;;28.24;42.65;97176.03;5048853;28;20183;-71
2022/08/05 03:14:55;;;;;;;8.90;3.17;;;;;;;28.19;42.63;97182.22;5043211;28;20422;-71
2022/08/05 03:17:20;;;;;;;5.90;2.70;;;;;;;28.16;42.84;97182.78;5039590;28;20495;-71
2022/08/05 03:19:46;;;;;;;6.33;2.70;;;;;;;28.05;43.63;97189.16;5037673;28;20189;-72
2022/08/05 03:22:11;;;;;;;10.23;3.00;;;;;;;28.04;43.82;97191.06;5023460;28;23043;-72
2022/08/05 03:24:37;;;;;;;7.27;3.10;;;;;;;28.03;43.50;97194.84;5022438;28;20207;-71
2022/08/05 03:27:02;;;;;;;9.60;3.53;;;;;;;27.96;43.60;97188.91;5033852;28;20270;-70
2022/08/05 03:29:28;;;;;;;8.17;2.90;;;;;;;27.95;43.39;97187.28;5041151;28;20176;-70
2022/08/05 03:31:54;;;;;;;16.63;3.47;;;;;;;27.95;43.56;97181.06;5032519;28;20178;-70
2022/08/05 03:34:19;;;;;;;4.90;3.10;;;;;;;27.96;43.67;97191.59;5025088;28;20188;-71
2022/08/05 03:36:45;;;;;;;13.97;3.00;;;;;;;27.93;43.16;97185.91;5033269;28;20701;-71
2022/08/05 03:39:10;;;;;;;12.90;3.20;;;;;;;27.86;44.10;97186.16;5033709;28;20182;-71
2022/08/05 03:41:36;;;;;;;9.47;2.93;;;;;;;27.81;44.46;97180.78;5032914;28;20237;-70
2022/08/05 03:44:01;;;;;;;7.80;3.40;;;;;;;27.79;44.44;97182.91;5032935;28;20286;-71
2022/08/05 03:46:27;;;;;;;4.93;3.17;;;;;;;27.72;44.56;97183.97;5033241;28;20694;-71
2022/08/05 03:48:52;;;;;;;8.90;3.40;;;;;;;27.62;44.98;97189.31;5033480;28;20187;-70
2022/08/05 03:51:29;;;;;;;10.97;3.17;;;;;;;27.58;45.11;97172.91;5029543;28;20179;-71
2022/08/05 03:54:06;;;;;;;12.10;3.43;;;;;;;27.48;45.34;97161.28;5029827;28;20211;-69
2022/08/05 03:56:41;;;;;;;9.33;3.30;;;;;;;27.40;45.61;97158.00;5024629;28;20427;-70
2022/08/05 03:59:12;;;;;;;4.57;3.20;;;;;;;27.43;45.55;97153.97;5023669;28;20429;-69
2022/08/05 04:01:41;;;;;;;8.57;3.27;;;;;;;27.41;45.19;97161.47;5032998;28;20421;-70
2022/08/05 04:04:07;;;;;;;7.60;3.23;;;;;;;27.41;45.57;97164.16;5025581;28;20948;-70
2022/08/05 04:06:34;;;;;;;6.63;3.73;;;;;;;27.43;45.41;97172.78;5027893;28;20429;-70
2022/08/05 04:09:00;;;;;;;8.03;3.13;;;;;;;27.39;45.37;97180.59;5033661;28;20430;-69
2022/08/05 04:11:26;;;;;;;11.00;3.53;;;;;;;27.31;45.57;97183.78;5024140;28;20431;-69
2022/08/05 04:13:52;;;;;;;5.33;3.10;;;;;;;27.32;45.62;97180.03;5027691;28;20528;-69
2022/08/05 04:16:18;;;;;;;8.23;3.40;;;;;;;27.32;45.60;97180.03;5019053;28;20263;-70
2022/08/05 04:18:44;;;;;;;11.03;3.47;;;;;;;27.29;45.64;97186.72;5025768;28;20302;-69
2022/08/05 04:21:09;;;;;;;6.80;3.33;;;;;;;27.21;45.96;97191.81;5025728;28;20501;-70
2022/08/05 04:23:35;;;;;;;9.07;3.50;;;;;;;27.10;46.33;97188.25;5026210;28;20496;-71
2022/08/05 04:26:02;;;;;;;7.60;3.23;;;;;;;27.07;46.32;97194.94;5018453;28;20215;-71
2022/08/05 04:28:27;;;;;;;7.30;3.30;;;;;;;27.06;45.97;97208.63;5031091;28;20430;-69
2022/08/05 04:30:53;;;;;;;5.57;3.23;;;;;;;27.14;46.11;97224.31;5024321;28;20540;-69
2022/08/05 04:33:18;;;;;;;9.40;3.40;;;;;;;27.24;46.07;97232.44;5019840;28;20235;-70
2022/08/05 04:35:44;;;;;;;5.13;3.57;;;;;;;27.33;45.60;97235.44;5021918;28;20242;-69
2022/08/05 04:38:10;;;;;;;6.73;3.23;;;;;;;27.35;45.84;97254.81;5019471;28;20742;-69
2022/08/05 04:40:36;;;;;;;8.83;3.30;;;;;;;27.42;45.60;97265.34;5027345;28;20185;-69
2022/08/05 04:43:02;;;;;;;9.43;3.23;;;;;;;27.42;45.47;97273.41;5029475;28;20242;-69
2022/08/05 04:45:27;;;;;;;9.03;3.77;;;;;;;27.41;45.68;97274.47;5021580;28;20505;-68
2022/08/05 04:47:53;;;;;;;7.60;3.30;;;;;;;27.43;45.59;97292.00;5025396;28;20430;-69
2022/08/05 04:50:18;;;;;;;9.83;3.40;;;;;;;27.42;45.69;97295.75;5019821;28;20192;-69
2022/08/05 04:52:44;;;;;;;12.00;3.30;;;;;;;27.39;45.78;97296.28;5025075;28;20562;-69
2022/08/05 04:55:10;;;;;;;10.70;4.23;;;;;;;27.39;45.93;97293.59;5020835;28;20173;-69
2022/08/05 04:57:35;;;;;;;6.87;3.60;;;;;;;27.36;46.02;97293.28;5026808;28;20619;-70
2022/08/05 05:00:02;;;;;;;11.73;4.00;;;;;;;27.29;46.25;97318.53;5023053;28;20238;-68
2022/08/05 05:02:27;;;;;;;9.83;3.30;;;;;;;27.22;46.44;97330.59;5025181;28;20188;-69
2022/08/05 05:04:53;;;;;;;10.33;3.30;;;;;;;27.26;46.18;97353.19;5022407;28;20829;-69
2022/08/05 05:07:18;;;;;;;9.67;3.43;;;;;;;27.28;45.72;97369.91;5029946;28;20210;-70
2022/08/05 05:09:44;;;;;;;8.03;3.70;;;;;;;27.32;46.01;97371.03;5031940;28;20686;-70
2022/08/05 05:12:10;;;;;;;4.70;3.30;;;;;;;27.32;45.63;97380.97;5031760;28;20660;-71
2022/08/05 05:14:35;;;;;;;5.90;3.57;;;;;;;27.31;45.87;97377.47;5030567;28;20671;-71
2022/08/05 05:17:01;;;;;;;9.33;3.60;;;;;;;27.31;45.66;97382.03;5031732;28;20711;-72
2022/08/05 05:19:26;;;;;;;4.90;3.37;;;;;;;27.36;45.45;97374.81;5029326;28;20214;-70
2022/08/05 05:21:51;;;;;;;6.33;3.17;;;;;;;27.39;45.76;97379.69;5033146;28;20245;-71
2022/08/05 05:24:20;;;;;;;5.43;3.50;;;;;;;27.46;45.49;97394.84;5017723;28;20711;-71
2022/08/05 05:26:46;;;;;;;3.73;2.97;;;;;;;27.52;45.27;97389.25;5025573;28;20641;-70
2022/08/05 05:29:11;;;;;;;4.20;3.57;;;;;;;27.59;44.88;97389.00;5036045;28;20442;-70
2022/08/05 05:31:37;;;;;;;10.30;3.40;;;;;;;27.63;44.79;97384.72;5031812;28;20194;-70
2022/08/05 05:34:02;;;;;;;5.53;3.47;;;;;;;27.69;44.66;97382.88;5024698;28;20212;-70
2022/08/05 05:36:28;;;;;;;6.90;3.20;;;;;;;27.74;44.58;97386.41;5043265;28;20266;-72
2022/08/05 05:38:54;;;;;;;11.77;3.50;;;;;;;27.81;44.47;97391.56;5025623;28;20230;-72
2022/08/05 05:41:19;;;;;;;9.23;3.40;;;;;;;27.89;44.58;97396.47;5022441;28;20255;-72
2022/08/05 05:43:44;;;;;;;11.40;3.20;;;;;;;27.99;44.41;97403.78;5027698;28;20234;-71
2022/08/05 05:46:10;;;;;;;18.90;4.07;;;;;;;28.08;44.32;97408.69;5016484;28;20212;-70
2022/08/05 05:48:35;;;;;;;13.00;4.10;;;;;;;28.14;44.21;97418.44;5013371;28;20188;-70
2022/08/05 05:51:01;;;;;;;9.23;3.87;;;;;;;28.21;44.21;97413.66;5014125;28;20231;-70
2022/08/05 05:53:26;;;;;;;6.33;3.57;;;;;;;28.30;44.30;97416.63;5013380;28;20195;-70
2022/08/05 05:55:52;;;;;;;9.30;3.73;;;;;;;28.38;44.22;97420.72;5013215;28;20275;-70
2022/08/05 05:58:17;;;;;;;7.37;3.90;;;;;;;28.49;43.89;97425.06;5012365;28;20276;-71
2022/08/05 06:00:43;;;;;;;6.83;3.80;;;;;;;28.61;43.79;97417.56;5017675;28;20669;-71
2022/08/05 06:03:08;;;;;;;4.17;3.40;;;;;;;28.70;43.66;97427.84;5016845;28;20204;-71
2022/08/05 06:05:34;;;;;;;5.10;3.50;;;;;;;28.86;43.30;97436.81;5028039;28;20204;-71
2022/08/05 06:07:59;;;;;;;6.40;3.70;;;;;;;28.95;42.50;97441.44;5029692;28;20191;-71
2022/08/05 06:10:25;;;;;;;5.67;3.33;;;;;;;29.07;42.63;97441.16;5029463;28;20180;-71
2022/08/05 06:12:50;;;;;;;5.63;3.30;;;;;;;29.17;41.44;97437.69;5032743;28;20736;-71
2022/08/05 06:15:16;;;;;;;7.20;3.70;;;;;;;29.28;41.40;97435.81;5030930;28;20184;-70
2022/08/05 06:17:41;;;;;;;8.83;3.47;;;;;;;29.25;41.58;97431.75;5031140;28;20187;-71
2022/08/05 06:20:07;;;;;;;11.60;4.07;;;;;;;29.31;41.79;97410.19;5029320;28;20601;-72
2022/08/05 06:22:34;;;;;;;5.10;3.57;;;;;;;29.39;41.72;97412.38;5028268;28;20187;-71
2022/08/05 06:25:00;;;;;;;7.00;3.57;;;;;;;29.46;41.40;97418.31;5016550;28;20485;-70
2022/08/05 06:27:25;;;;;;;5.70;3.43;;;;;;;29.58;41.48;97418.03;5016147;28;20431;-71
2022/08/05 06:29:51;;;;;;;5.97;3.50;;;;;;;29.70;40.86;97418.56;5022087;28;20436;-71
2022/08/05 06:32:17;;;;;;;5.33;3.30;;;;;;;29.82;40.22;97415.59;5014058;28;20192;-71
2022/08/05 06:34:42;;;;;;;7.43;3.40;;;;;;;29.95;40.44;97405.31;5023400;28;20632;-71
2022/08/05 06:37:08;;;;;;;3.10;2.83;;;;;;;30.03;39.72;97400.19;5013809;28;20675;-71
2022/08/05 06:39:33;;;;;;;3.30;2.90;;;;;;;30.13;39.09;97409.34;5025792;28;20179;-72
2022/08/05 06:42:01;;;;;;;3.50;2.80;;;;;;;30.23;39.18;97400.38;5019863;28;20195;-70
2022/08/05 06:44:26;;;;;;;3.73;2.60;;;;;;;30.36;38.60;97399.81;5028026;28;20203;-71
2022/08/05 06:46:52;;;;;;;6.50;3.40;;;;;;;30.47;38.82;97404.06;5019613;28;20790;-72
2022/08/05 06:49:18;;;;;;;5.83;3.07;;;;;;;30.57;39.05;97414.03;5014556;28;20183;-71
2022/08/05 06:51:43;;;;;;;7.10;2.90;;;;;;;30.71;38.95;97414.25;5020143;28;20762;-72
2022/08/05 06:54:09;;;;;;;3.33;2.63;;;;;;;30.83;38.12;97411.22;5014768;28;20200;-72
2022/08/05 06:56:34;;;;;;;7.00;2.80;;;;;;;30.92;36.98;97424.94;5030343;28;20602;-71
2022/08/05 06:59:00;;;;;;;7.30;2.80;;;;;;;31.01;37.58;97415.16;5015863;28;20266;-73
2022/08/05 07:01:25;;;;;;;3.10;2.20;;;;;;;31.12;37.10;97417.81;5019602;28;20194;-73
2022/08/05 07:03:51;;;;;;;4.20;2.30;;;;;;;31.16;36.22;97418.88;5019682;28;20211;-73
2022/08/05 07:06:16;;;;;;;2.80;2.20;;;;;;;31.21;36.14;97432.38;5024891;28;20215;-73
2022/08/05 07:08:42;;;;;;;6.20;2.73;;;;;;;31.24;35.79;97437.25;5022972;28;20187;-73
2022/08/05 07:11:08;;;;;;;5.90;2.30;;;;;;;31.30;35.96;97435.31;5024112;28;20180;-73
2022/08/05 07:19:02;;;;;;;8.80;2.73;;;;;;;31.36;35.49;97439.56;5024476;28;20563;-73
2022/08/05 07:21:28;;;;;;;3.53;1.93;;;;;;;31.42;35.72;97438.47;5019842;28;20509;-74
2022/08/05 07:23:53;;;;;;;7.63;2.77;;;;;;;31.50;35.48;97450.59;5026724;28;20272;-73
2022/08/05 07:26:19;;;;;;;1.90;1.80;;;;;;;31.58;34.82;97454.56;5020437;28;20211;-73
2022/08/05 07:28:44;;;;;;;8.50;2.57;;;;;;;31.65;34.56;97450.44;5018630;28;20271;-74
2022/08/05 07:31:09;;;;;;;4.43;2.20;;;;;;;31.76;34.43;97453.09;5009306;28;20668;-72
2022/08/05 07:33:35;;;;;;;3.70;2.20;;;;;;;31.84;33.63;97466.81;5011432;28;20636;-73
2022/08/05 07:36:00;;;;;;;5.17;2.27;;;;;;;31.91;33.43;97455.66;5011580;28;20185;-73
2022/08/05 07:38:26;;;;;;;3.50;2.00;;;;;;;32.02;33.27;97459.88;5010932;28;20768;-73
2022/08/05 07:40:52;;;;;;;18.60;2.00;;;;;;;32.12;33.45;97466.31;5010185;28;20199;-74
2022/08/05 07:43:17;;;;;;;3.40;2.07;;;;;;;32.25;33.65;97459.41;5017174;28;20450;-74
2022/08/05 07:45:43;;;;;;;4.40;2.43;;;;;;;32.34;32.92;97454.97;5015463;28;20242;-74
2022/08/05 07:48:09;;;;;;;3.53;1.90;;;;;;;32.37;32.31;97456.31;5014210;28;20183;-74
2022/08/05 07:50:35;;;;;;;2.07;1.87;;;;;;;32.41;32.34;97460.03;5012412;28;20283;-74
2022/08/05 07:53:00;;;;;;;6.73;2.30;;;;;;;32.45;32.30;97458.38;5012364;28;20451;-74
2022/08/05 07:55:26;;;;;;;3.00;2.10;;;;;;;32.52;31.95;97461.53;5019466;28;20251;-76
2022/08/05 07:57:51;;;;;;;7.93;2.03;;;;;;;32.58;30.82;97460.38;5013150;28;20188;-75
2022/08/05 08:00:17;;;;;;;1.80;1.70;;;;;;;32.64;31.06;97455.69;5013747;28;20797;-73
2022/08/05 08:02:43;;;;;;;3.93;2.10;;;;;;;32.70;31.24;97465.38;5015243;28;20184;-72
2022/08/05 08:05:09;;;;;;;2.57;2.00;;;;;;;32.80;30.87;97469.91;5010554;28;20208;-72
2022/08/05 08:07:35;;;;;;;3.57;1.83;;;;;;;32.71;30.46;97471.63;5011035;28;20208;-75
2022/08/05 08:10:00;;;;;;;2.17;1.50;;;;;;;32.63;29.99;97465.75;5013397;28;20451;-72
2022/08/05 08:12:25;;;;;;;1.73;1.57;;;;;;;32.65;30.03;97467.34;5019181;28;20648;-74
2022/08/05 08:14:51;;;;;;;4.53;1.83;;;;;;;32.65;30.12;97468.16;5013687;28;20212;-71
2022/08/05 08:17:17;;;;;;;3.67;1.87;;;;;;;32.71;30.16;97466.19;5030192;28;20183;-72
2022/08/05 08:19:43;;;;;;;2.23;1.90;;;;;;;32.85;30.31;97469.84;5025821;28;20682;-71
2022/08/05 08:22:09;;;;;;;7.10;2.20;;;;;;;32.90;30.24;97458.91;5033031;28;20188;-70
2022/08/05 08:24:35;;;;;;;2.70;1.67;;;;;;;32.98;30.09;97460.16;5027923;28;20450;-71
2022/08/05 08:27:02;;;;;;;3.93;1.83;;;;;;;33.06;30.05;97466.84;5030070;28;20890;-73
2022/08/05 08:29:27;;;;;;;1.97;1.67;;;;;;;33.21;29.65;97461.19;5034940;28;20721;-70
2022/08/05 08:31:53;;;;;;;2.03;1.83;;;;;;;33.30;29.67;97465.94;5021601;28;20419;-71
2022/08/05 08:34:20;;;;;;;2.33;1.70;;;;;;;33.41;29.34;97462.00;5029865;28;20686;-70
2022/08/05 08:36:45;;;;;;;1.90;1.80;;;;;;;33.56;29.55;97462.88;5022623;28;20783;-72
2022/08/05 08:39:11;;;;;;;2.97;1.67;;;;;;;33.67;29.47;97462.41;5029462;28;20426;-70
2022/08/05 08:41:40;;;;;;;6.20;2.00;;;;;;;33.68;29.00;97446.91;5027195;28;20180;-71
2022/08/05 08:44:06;;;;;;;3.33;1.90;;;;;;;33.75;28.66;97436.47;5027523;28;20215;-70
2022/08/05 08:46:33;;;;;;;4.40;1.77;;;;;;;33.83;28.58;97435.78;5024271;28;20921;-71
2022/08/05 08:48:58;;;;;;;2.17;1.50;;;;;;;33.87;28.08;97430.53;5022418;28;20446;-71
2022/08/05 08:51:26;;;;;;;2.73;1.53;;;;;;;33.77;27.93;97431.56;5028833;28;20430;-73
2022/08/05 08:53:52;;;;;;;1.73;1.60;;;;;;;33.90;27.95;97429.97;5027385;28;20207;-72
2022/08/05 08:56:19;;;;;;;1.70;1.60;;;;;;;34.07;27.84;97426.66;5029910;28;20952;-72
2022/08/05 08:58:45;;;;;;;5.17;1.60;;;;;;;34.24;27.71;97425.28;5024933;28;20528;-71
2022/08/05 09:01:11;;;;;;;1.80;1.37;;;;;;;34.43;27.22;97427.91;5030010;28;20492;-70
2022/08/05 09:03:37;;;;;;;1.90;1.50;;;;;;;34.55;27.03;97427.38;5023745;28;20203;-71
2022/08/05 09:06:03;;;;;;;1.97;1.73;;;;;;;34.71;26.67;97425.97;5032855;28;20214;-72
2022/08/05 09:08:28;;;;;;;2.60;1.80;;;;;;;34.86;26.52;97408.47;5032836;28;20192;-72
2022/08/05 09:10:53;;;;;;;2.33;1.53;;;;;;;35.03;26.17;97407.06;5033101;28;20187;-72
2022/08/05 09:13:19;;;;;;;3.23;1.67;;;;;;;35.02;26.33;97400.81;5030154;28;20686;-71
2022/08/05 09:15:45;;;;;;;7.50;1.67;;;;;;;35.04;26.10;97404.00;5020981;28;20203;-70
2022/08/05 09:18:11;;;;;;;2.67;1.70;;;;;;;35.14;25.79;97391.28;5018030;28;20188;-70
2022/08/05 09:20:36;;;;;;;2.47;1.40;;;;;;;35.09;25.84;97394.13;5027305;28;20445;-71
2022/08/05 09:23:13;;;;;;;2.87;1.80;;;;;;;34.55;25.76;97389.28;5019820;28;20702;-69
2022/08/05 09:25:40;;;;;;;2.47;1.87;;;;;;;35.02;26.06;97392.66;5015148;28;20696;-70
2022/08/05 09:28:14;;;;;;;1.67;1.57;;;;;;;35.24;25.85;97393.75;5027027;28;20428;-70
2022/08/05 09:30:52;;;;;;;3.77;1.80;;;;;;;35.26;25.73;97393.44;5016497;28;20586;-73
2022/08/05 09:33:17;;;;;;;1.63;1.53;;;;;;;35.48;25.86;97387.22;5019323;28;20449;-72
2022/08/05 09:35:55;;;;;;;1.70;1.60;;;;;;;35.21;25.62;97380.75;5023207;28;20435;-70
2022/08/05 09:38:20;;;;;;;3.20;1.70;;;;;;;35.28;25.08;97377.59;5020864;28;20604;-71
2022/08/05 09:40:46;;;;;;;3.83;1.77;;;;;;;35.41;25.55;97374.00;5019162;28;20501;-71
2022/08/05 09:43:26;;;;;;;2.53;1.93;;;;;;;35.58;25.26;97376.03;5027930;28;20261;-71
2022/08/05 09:45:51;;;;;;;2.83;1.40;;;;;;;35.72;25.28;97369.69;5020974;28;20211;-71
2022/08/05 09:48:24;;;;;;;1.77;1.67;;;;;;;35.63;25.20;97373.19;5022075;28;20568;-70
2022/08/05 09:50:52;;;;;;;1.70;1.50;;;;;;;35.94;25.21;97372.38;5021989;28;20210;-71
2022/08/05 09:53:18;;;;;;;3.20;1.47;;;;;;;36.13;25.01;97368.59;5027684;28;20468;-70
2022/08/05 09:55:43;;;;;;;1.83;1.67;;;;;;;36.40;24.80;97366.75;5020077;28;20415;-71
2022/08/05 09:58:11;;;;;;;1.57;1.47;;;;;;;36.67;24.87;97368.41;5026775;28;20190;-70
2022/08/05 10:00:36;;;;;;;6.60;1.63;;;;;;;36.95;24.89;97370.84;5031416;28;20175;-71
2022/08/05 10:03:08;;;;;;;4.17;1.90;;;;;;;36.87;24.15;97372.44;5020362;28;21338;-70
2022/08/05 10:05:34;;;;;;;1.40;1.30;;;;;;;36.80;24.30;97368.56;5027705;28;20203;-70
2022/08/05 10:08:09;;;;;;;5.40;1.80;;;;;;;36.96;24.46;97368.91;5030655;28;20425;-71
2022/08/05 10:10:46;;;;;;;3.00;1.60;;;;;;;37.04;24.03;97368.91;5020291;28;20435;-70
2022/08/05 10:13:25;;;;;;;1.60;1.47;;;;;;;36.99;23.99;97377.25;5017369;28;20454;-69
2022/08/05 10:15:50;;;;;;;3.30;1.80;;;;;;;36.83;23.80;97376.91;5021972;28;20440;-71
2022/08/05 10:18:26;;;;;;;1.87;1.40;;;;;;;36.86;24.29;97370.03;5025622;28;21134;-69
2022/08/05 10:20:55;;;;;;;3.17;1.40;;;;;;;37.14;23.90;97356.84;5027744;28;20226;-71
2022/08/05 10:23:22;;;;;;;3.03;1.53;;;;;;;37.40;24.21;97357.91;5020207;28;20541;-70
2022/08/05 10:25:47;;;;;;;3.40;1.50;;;;;;;37.62;23.31;97359.66;5024759;28;20553;-70
2022/08/05 10:28:14;;;;;;;2.87;1.80;;;;;;;37.79;23.15;97354.13;5026505;28;20995;-70
2022/08/05 10:30:40;;;;;;;6.40;1.70;;;;;;;37.92;23.49;97360.53;5019252;28;20190;-68
2022/08/05 10:33:05;;;;;;;4.57;1.83;;;;;;;38.04;22.92;97364.50;5019401;28;20507;-71
2022/08/05 10:35:31;;;;;;;6.10;1.67;;;;;;;37.79;22.51;97365.06;5019448;28;20182;-68
2022/08/05 10:37:59;;;;;;;3.10;1.80;;;;;;;37.66;23.12;97352.41;5022905;28;20190;-68
2022/08/05 10:40:33;;;;;;;3.60;1.57;;;;;;;37.91;22.47;97352.66;5023974;28;20426;-69
2022/08/05 10:43:11;;;;;;;3.77;1.60;;;;;;;38.07;22.66;97353.69;5024837;28;20529;-70
2022/08/05 10:45:36;;;;;;;2.33;1.67;;;;;;;38.02;22.07;97353.91;5015856;28;20454;-70
2022/08/05 10:48:33;;;;;;;2.27;1.60;;;;;;;38.18;22.64;97348.66;5021334;28;20796;-70
2022/08/05 10:51:14;;;;;;;2.00;1.50;;;;;;;38.23;21.83;97350.38;5018894;28;20194;-71
2022/08/05 10:53:52;;;;;;;2.80;1.80;;;;;;;38.14;20.82;97341.44;5020552;28;20435;-69
2022/08/05 10:56:26;;;;;;;1.60;1.30;;;;;;;37.92;21.66;97349.59;5021695;28;20423;-68
2022/08/05 10:58:54;;;;;;;1.93;1.47;;;;;;;37.85;21.89;97345.75;5025213;28;20414;-69
2022/08/05 11:01:33;;;;;;;1.47;1.37;;;;;;;38.23;22.44;97344.91;5023941;28;20502;-69
2022/08/05 11:04:10;;;;;;;3.77;1.57;;;;;;;38.62;21.92;97342.91;5021009;28;20510;-73
2022/08/05 11:07:03;;;;;;;1.90;1.40;;;;;;;38.83;21.10;97342.13;5024891;28;20964;-71
2022/08/05 11:09:42;;;;;;;4.33;1.40;;;;;;;38.97;21.29;97348.13;5030431;28;20414;-71
2022/08/05 11:12:23;;;;;;;3.40;1.70;;;;;;;39.22;21.43;97348.19;5033362;28;20424;-71
2022/08/05 11:15:16;;;;;;;1.60;1.50;;;;;;;39.22;20.60;97345.47;5030945;28;20425;-71
2022/08/05 11:17:43;;;;;;;3.10;1.50;;;;;;;39.22;21.10;97339.97;5030403;28;20414;-72
2022/08/05 11:20:31;;;;;;;3.80;1.53;;;;;;;38.71;21.56;97349.09;5031799;28;20182;-71
2022/08/05 11:22:56;;;;;;;1.50;1.40;;;;;;;38.83;21.33;97350.31;5038600;28;20414;-71
2022/08/05 11:25:34;;;;;;;3.40;1.30;;;;;;;38.49;21.63;97352.19;5029969;28;20507;-69
2022/08/05 11:28:10;;;;;;;2.60;1.53;;;;;;;38.81;21.59;97349.88;5035102;28;20186;-69
2022/08/05 11:31:10;;;;;;;5.23;1.93;;;;;;;38.87;20.86;97351.28;5023342;28;20417;-70
2022/08/05 11:33:50;;;;;;;1.90;1.53;;;;;;;38.67;21.21;97350.13;5001720;28;20957;-71
2022/08/05 11:36:20;;;;;;;1.63;1.53;;;;;;;38.67;21.36;97350.94;5027144;28;20418;-72
2022/08/05 11:38:47;;;;;;;2.87;1.43;;;;;;;38.74;21.43;97357.78;5029901;28;20433;-71
2022/08/05 11:41:25;;;;;;;1.97;1.30;;;;;;;38.95;21.06;97358.59;5026814;28;20433;-71